sensor_id;sensor_type;location;lat;lon;timestamp;P1;durP1;ratioP1;P2;durP2;ratioP2
56770;SDS011;42641;59.794;17.616;2022-12-18T00:01:21;13.30;;;8.07;;
56770;SDS011;42641;59.794;17.616;2022-12-18T00:03:53;12.60;;;7.40;;
56770;SDS011;42641;59.794;17.616;2022-12-18T00:06:21;12.97;;;8.23;;
56770;SDS011;42641;59.794;17.616;2022-12-18T00:08:48;14.27;;;8.20;;
56770;SDS011;42641;59.794;17.616;2022-12-18T00:11:15;12.03;;;7.93;;
56770;SDS011;42641;59.794;17.616;2022-12-18T00:13:43;11.80;;;7.70;;
56770;SDS011;42641;59.794;17.616;2022-12-18T00:16:11;15.43;;;8.77;;
56770;SDS011;42641;59.794;17.616;2022-12-18T00:18:39;13.50;;;7.17;;
56770;SDS011;42641;59.794;17.616;2022-12-18T00:21:09;15.67;;;8.37;;
56770;SDS011;42641;59.794;17.616;2022-12-18T00:23:37;14.27;;;8.43;;
56770;SDS011;42641;59.794;17.616;2022-12-18T00:26:05;15.90;;;8.03;;
56770;SDS011;42641;59.794;17.616;2022-12-18T00:28:33;13.60;;;7.73;;
56770;SDS011;42641;59.794;17.616;2022-12-18T00:31:01;15.47;;;8.20;;
56770;SDS011;42641;59.794;17.616;2022-12-18T00:33:35;14.47;;;8.57;;
56770;SDS011;42641;59.794;17.616;2022-12-18T00:36:06;14.23;;;8.40;;
56770;SDS011;42641;59.794;17.616;2022-12-18T00:38:37;14.50;;;7.83;;
56770;SDS011;42641;59.794;17.616;2022-12-18T00:41:04;11.73;;;7.53;;
56770;SDS011;42641;59.794;17.616;2022-12-18T00:43:31;13.60;;;7.53;;
56770;SDS011;42641;59.794;17.616;2022-12-18T00:45:57;15.53;;;8.47;;
56770;SDS011;42641;59.794;17.616;2022-12-18T00:48:25;13.20;;;7.73;;
56770;SDS011;42641;59.794;17.616;2022-12-18T00:50:51;12.63;;;7.63;;
56770;SDS011;42641;59.794;17.616;2022-12-18T00:53:18;14.03;;;8.53;;
56770;SDS011;42641;59.794;17.616;2022-12-18T00:55:44;13.13;;;7.00;;
56770;SDS011;42641;59.794;17.616;2022-12-18T00:58:12;15.90;;;7.70;;
56770;SDS011;42641;59.794;17.616;2022-12-18T01:00:40;14.07;;;8.00;;
56770;SDS011;42641;59.794;17.616;2022-12-18T01:03:12;16.40;;;8.53;;
56770;SDS011;42641;59.794;17.616;2022-12-18T01:05:40;14.40;;;8.20;;
56770;SDS011;42641;59.794;17.616;2022-12-18T01:08:07;12.17;;;7.73;;
56770;SDS011;42641;59.794;17.616;2022-12-18T01:10:34;11.63;;;7.43;;
56770;SDS011;42641;59.794;17.616;2022-12-18T01:13:00;14.90;;;7.87;;
56770;SDS011;42641;59.794;17.616;2022-12-18T01:15:27;16.50;;;8.47;;
56770;SDS011;42641;59.794;17.616;2022-12-18T01:17:53;13.20;;;7.20;;
56770;SDS011;42641;59.794;17.616;2022-12-18T01:20:19;15.33;;;7.50;;
56770;SDS011;42641;59.794;17.616;2022-12-18T01:22:46;14.50;;;7.87;;
56770;SDS011;42641;59.794;17.616;2022-12-18T01:25:12;12.33;;;7.27;;
56770;SDS011;42641;59.794;17.616;2022-12-18T01:27:39;11.73;;;7.47;;
56770;SDS011;42641;59.794;17.616;2022-12-18T01:30:05;13.03;;;7.77;;
56770;SDS011;42641;59.794;17.616;2022-12-18T01:32:32;13.40;;;7.83;;
56770;SDS011;42641;59.794;17.616;2022-12-18T01:35:01;12.57;;;7.33;;
56770;SDS011;42641;59.794;17.616;2022-12-18T01:37:28;10.43;;;7.10;;
56770;SDS011;42641;59.794;17.616;2022-12-18T01:39:55;12.57;;;7.17;;
56770;SDS011;42641;59.794;17.616;2022-12-18T01:42:21;13.10;;;7.73;;
56770;SDS011;42641;59.794;17.616;2022-12-18T01:45:01;11.90;;;7.53;;
56770;SDS011;42641;59.794;17.616;2022-12-18T01:47:39;11.90;;;7.03;;
56770;SDS011;42641;59.794;17.616;2022-12-18T01:50:24;12.00;;;6.73;;
56770;SDS011;42641;59.794;17.616;2022-12-18T01:55:44;11.27;;;7.73;;
56770;SDS011;42641;59.794;17.616;2022-12-18T01:58:59;12.90;;;7.73;;
56770;SDS011;42641;59.794;17.616;2022-12-18T02:01:21;12.00;;;6.80;;
56770;SDS011;42641;59.794;17.616;2022-12-18T02:03:48;14.00;;;7.33;;
56770;SDS011;42641;59.794;17.616;2022-12-18T02:06:17;12.67;;;7.43;;
56770;SDS011;42641;59.794;17.616;2022-12-18T02:08:53;14.43;;;7.90;;
56770;SDS011;42641;59.794;17.616;2022-12-18T02:14:33;14.17;;;7.77;;
56770;SDS011;42641;59.794;17.616;2022-12-18T02:25:13;10.53;;;6.77;;
56770;SDS011;42641;59.794;17.616;2022-12-18T02:27:49;11.13;;;6.80;;
56770;SDS011;42641;59.794;17.616;2022-12-18T02:30:19;11.00;;;7.00;;
56770;SDS011;42641;59.794;17.616;2022-12-18T02:32:52;11.77;;;7.27;;
56770;SDS011;42641;59.794;17.616;2022-12-18T02:35:22;10.13;;;6.97;;
56770;SDS011;42641;59.794;17.616;2022-12-18T02:37:52;12.23;;;7.17;;
56770;SDS011;42641;59.794;17.616;2022-12-18T02:40:20;9.67;;;6.40;;
56770;SDS011;42641;59.794;17.616;2022-12-18T02:42:49;9.83;;;6.57;;
56770;SDS011;42641;59.794;17.616;2022-12-18T02:45:17;10.90;;;6.57;;
56770;SDS011;42641;59.794;17.616;2022-12-18T02:47:46;15.33;;;7.37;;
56770;SDS011;42641;59.794;17.616;2022-12-18T02:53:00;11.97;;;7.53;;
56770;SDS011;42641;59.794;17.616;2022-12-18T02:58:59;12.10;;;6.83;;
56770;SDS011;42641;59.794;17.616;2022-12-18T03:01:44;12.73;;;7.07;;
56770;SDS011;42641;59.794;17.616;2022-12-18T03:07:11;10.93;;;7.20;;
56770;SDS011;42641;59.794;17.616;2022-12-18T03:09:44;11.80;;;8.07;;
56770;SDS011;42641;59.794;17.616;2022-12-18T03:12:15;9.80;;;7.00;;
56770;SDS011;42641;59.794;17.616;2022-12-18T03:14:50;10.37;;;7.00;;
56770;SDS011;42641;59.794;17.616;2022-12-18T03:17:37;11.37;;;6.93;;
56770;SDS011;42641;59.794;17.616;2022-12-18T03:20:13;11.47;;;6.40;;
56770;SDS011;42641;59.794;17.616;2022-12-18T03:22:43;13.17;;;7.57;;
56770;SDS011;42641;59.794;17.616;2022-12-18T03:25:15;12.60;;;6.93;;
56770;SDS011;42641;59.794;17.616;2022-12-18T03:27:45;10.13;;;7.37;;
56770;SDS011;42641;59.794;17.616;2022-12-18T03:30:15;11.50;;;7.80;;
56770;SDS011;42641;59.794;17.616;2022-12-18T03:35:24;15.87;;;7.57;;
56770;SDS011;42641;59.794;17.616;2022-12-18T03:37:56;9.90;;;6.83;;
56770;SDS011;42641;59.794;17.616;2022-12-18T03:40:29;11.93;;;7.03;;
56770;SDS011;42641;59.794;17.616;2022-12-18T03:43:17;13.23;;;7.53;;
56770;SDS011;42641;59.794;17.616;2022-12-18T03:45:53;13.07;;;7.07;;
56770;SDS011;42641;59.794;17.616;2022-12-18T03:48:28;10.70;;;6.77;;
56770;SDS011;42641;59.794;17.616;2022-12-18T03:51:11;10.60;;;6.43;;
56770;SDS011;42641;59.794;17.616;2022-12-18T03:54:03;13.93;;;7.70;;
56770;SDS011;42641;59.794;17.616;2022-12-18T03:56:42;13.47;;;7.40;;
56770;SDS011;42641;59.794;17.616;2022-12-18T03:59:14;13.57;;;7.40;;
56770;SDS011;42641;59.794;17.616;2022-12-18T04:01:45;11.30;;;6.83;;
56770;SDS011;42641;59.794;17.616;2022-12-18T04:04:14;12.77;;;6.83;;
56770;SDS011;42641;59.794;17.616;2022-12-18T04:06:44;14.53;;;7.33;;
56770;SDS011;42641;59.794;17.616;2022-12-18T04:09:13;12.30;;;7.43;;
56770;SDS011;42641;59.794;17.616;2022-12-18T04:11:43;13.07;;;7.07;;
56770;SDS011;42641;59.794;17.616;2022-12-18T04:14:14;10.93;;;7.30;;
56770;SDS011;42641;59.794;17.616;2022-12-18T04:16:40;11.53;;;7.53;;
56770;SDS011;42641;59.794;17.616;2022-12-18T04:19:10;10.03;;;6.53;;
56770;SDS011;42641;59.794;17.616;2022-12-18T04:21:40;13.03;;;7.40;;
56770;SDS011;42641;59.794;17.616;2022-12-18T04:24:08;10.60;;;6.43;;
56770;SDS011;42641;59.794;17.616;2022-12-18T04:26:37;11.20;;;7.10;;
56770;SDS011;42641;59.794;17.616;2022-12-18T04:29:14;15.50;;;7.57;;
56770;SDS011;42641;59.794;17.616;2022-12-18T04:31:41;13.50;;;7.00;;
56770;SDS011;42641;59.794;17.616;2022-12-18T04:34:09;13.20;;;7.07;;
56770;SDS011;42641;59.794;17.616;2022-12-18T04:36:41;9.10;;;5.93;;
56770;SDS011;42641;59.794;17.616;2022-12-18T04:39:07;9.10;;;6.33;;
56770;SDS011;42641;59.794;17.616;2022-12-18T04:41:34;11.13;;;6.27;;
56770;SDS011;42641;59.794;17.616;2022-12-18T04:44:01;11.90;;;6.80;;
56770;SDS011;42641;59.794;17.616;2022-12-18T04:46:27;10.53;;;6.97;;
56770;SDS011;42641;59.794;17.616;2022-12-18T04:48:53;11.20;;;6.63;;
56770;SDS011;42641;59.794;17.616;2022-12-18T04:51:20;12.10;;;7.23;;
56770;SDS011;42641;59.794;17.616;2022-12-18T04:53:46;11.43;;;7.20;;
56770;SDS011;42641;59.794;17.616;2022-12-18T04:56:13;9.97;;;6.30;;
56770;SDS011;42641;59.794;17.616;2022-12-18T04:58:41;9.80;;;6.37;;
56770;SDS011;42641;59.794;17.616;2022-12-18T05:01:09;12.20;;;6.77;;
56770;SDS011;42641;59.794;17.616;2022-12-18T05:03:37;12.37;;;6.87;;
56770;SDS011;42641;59.794;17.616;2022-12-18T05:06:05;11.13;;;6.97;;
56770;SDS011;42641;59.794;17.616;2022-12-18T05:08:32;10.43;;;6.67;;
56770;SDS011;42641;59.794;17.616;2022-12-18T05:13:30;10.67;;;6.37;;
56770;SDS011;42641;59.794;17.616;2022-12-18T05:15:57;12.03;;;6.63;;
56770;SDS011;42641;59.794;17.616;2022-12-18T05:18:24;11.87;;;7.07;;
56770;SDS011;42641;59.794;17.616;2022-12-18T05:20:51;12.43;;;6.83;;
56770;SDS011;42641;59.794;17.616;2022-12-18T05:23:18;11.63;;;6.30;;
56770;SDS011;42641;59.794;17.616;2022-12-18T05:25:55;10.97;;;6.67;;
56770;SDS011;42641;59.794;17.616;2022-12-18T05:28:27;10.90;;;6.50;;
56770;SDS011;42641;59.794;17.616;2022-12-18T05:30:56;11.10;;;6.70;;
56770;SDS011;42641;59.794;17.616;2022-12-18T05:33:25;12.73;;;6.87;;
56770;SDS011;42641;59.794;17.616;2022-12-18T05:35:55;12.33;;;6.37;;
56770;SDS011;42641;59.794;17.616;2022-12-18T05:38:24;9.70;;;6.00;;
56770;SDS011;42641;59.794;17.616;2022-12-18T05:40:51;11.53;;;7.17;;
56770;SDS011;42641;59.794;17.616;2022-12-18T05:43:19;11.07;;;7.30;;
56770;SDS011;42641;59.794;17.616;2022-12-18T05:45:47;12.20;;;6.90;;
56770;SDS011;42641;59.794;17.616;2022-12-18T05:48:15;11.03;;;6.40;;
56770;SDS011;42641;59.794;17.616;2022-12-18T05:50:42;12.97;;;7.00;;
56770;SDS011;42641;59.794;17.616;2022-12-18T05:53:14;10.03;;;6.70;;
56770;SDS011;42641;59.794;17.616;2022-12-18T05:55:42;11.77;;;7.17;;
56770;SDS011;42641;59.794;17.616;2022-12-18T05:58:10;12.17;;;6.60;;
56770;SDS011;42641;59.794;17.616;2022-12-18T06:00:38;10.97;;;6.77;;
56770;SDS011;42641;59.794;17.616;2022-12-18T06:03:07;10.77;;;6.53;;
56770;SDS011;42641;59.794;17.616;2022-12-18T06:05:38;10.87;;;6.37;;
56770;SDS011;42641;59.794;17.616;2022-12-18T06:08:06;11.93;;;7.43;;
56770;SDS011;42641;59.794;17.616;2022-12-18T06:10:33;11.50;;;6.60;;
56770;SDS011;42641;59.794;17.616;2022-12-18T06:12:59;11.27;;;7.37;;
56770;SDS011;42641;59.794;17.616;2022-12-18T06:15:26;11.97;;;6.60;;
56770;SDS011;42641;59.794;17.616;2022-12-18T06:17:52;11.83;;;7.27;;
56770;SDS011;42641;59.794;17.616;2022-12-18T06:20:19;12.53;;;7.03;;
56770;SDS011;42641;59.794;17.616;2022-12-18T06:22:46;12.27;;;6.77;;
56770;SDS011;42641;59.794;17.616;2022-12-18T06:25:12;9.70;;;6.27;;
56770;SDS011;42641;59.794;17.616;2022-12-18T06:27:39;10.57;;;6.40;;
56770;SDS011;42641;59.794;17.616;2022-12-18T06:30:06;11.03;;;6.73;;
56770;SDS011;42641;59.794;17.616;2022-12-18T06:32:33;10.73;;;6.87;;
56770;SDS011;42641;59.794;17.616;2022-12-18T06:34:59;10.77;;;6.70;;
56770;SDS011;42641;59.794;17.616;2022-12-18T06:37:26;13.50;;;7.60;;
56770;SDS011;42641;59.794;17.616;2022-12-18T06:39:53;11.27;;;7.00;;
56770;SDS011;42641;59.794;17.616;2022-12-18T06:42:19;10.90;;;6.53;;
56770;SDS011;42641;59.794;17.616;2022-12-18T06:44:46;13.27;;;8.37;;
56770;SDS011;42641;59.794;17.616;2022-12-18T06:47:12;10.60;;;7.20;;
56770;SDS011;42641;59.794;17.616;2022-12-18T06:49:38;12.60;;;6.97;;
56770;SDS011;42641;59.794;17.616;2022-12-18T06:52:05;11.40;;;6.73;;
56770;SDS011;42641;59.794;17.616;2022-12-18T06:54:31;13.27;;;7.00;;
56770;SDS011;42641;59.794;17.616;2022-12-18T06:56:57;12.43;;;6.70;;
56770;SDS011;42641;59.794;17.616;2022-12-18T06:59:24;12.03;;;6.87;;
56770;SDS011;42641;59.794;17.616;2022-12-18T07:01:50;11.60;;;6.60;;
56770;SDS011;42641;59.794;17.616;2022-12-18T07:04:17;11.00;;;7.10;;
56770;SDS011;42641;59.794;17.616;2022-12-18T07:06:43;11.30;;;6.80;;
56770;SDS011;42641;59.794;17.616;2022-12-18T07:09:09;15.10;;;7.50;;
56770;SDS011;42641;59.794;17.616;2022-12-18T07:11:36;13.23;;;6.77;;
56770;SDS011;42641;59.794;17.616;2022-12-18T07:14:02;12.87;;;7.20;;
56770;SDS011;42641;59.794;17.616;2022-12-18T07:16:29;11.20;;;7.13;;
56770;SDS011;42641;59.794;17.616;2022-12-18T07:18:55;10.57;;;7.13;;
56770;SDS011;42641;59.794;17.616;2022-12-18T07:21:22;9.23;;;5.60;;
56770;SDS011;42641;59.794;17.616;2022-12-18T07:23:49;10.57;;;6.67;;
56770;SDS011;42641;59.794;17.616;2022-12-18T07:26:17;11.47;;;7.13;;
56770;SDS011;42641;59.794;17.616;2022-12-18T07:28:45;11.93;;;6.57;;
56770;SDS011;42641;59.794;17.616;2022-12-18T07:31:13;12.77;;;7.57;;
56770;SDS011;42641;59.794;17.616;2022-12-18T07:33:41;10.30;;;7.27;;
56770;SDS011;42641;59.794;17.616;2022-12-18T07:36:09;12.87;;;7.23;;
56770;SDS011;42641;59.794;17.616;2022-12-18T07:38:36;11.80;;;6.37;;
56770;SDS011;42641;59.794;17.616;2022-12-18T07:41:03;11.50;;;7.00;;
56770;SDS011;42641;59.794;17.616;2022-12-18T07:43:32;11.10;;;6.50;;
56770;SDS011;42641;59.794;17.616;2022-12-18T07:45:58;11.30;;;6.53;;
56770;SDS011;42641;59.794;17.616;2022-12-18T07:48:25;11.90;;;7.20;;
56770;SDS011;42641;59.794;17.616;2022-12-18T07:50:52;11.63;;;6.97;;
56770;SDS011;42641;59.794;17.616;2022-12-18T07:53:18;11.03;;;7.10;;
56770;SDS011;42641;59.794;17.616;2022-12-18T07:55:44;10.13;;;6.87;;
56770;SDS011;42641;59.794;17.616;2022-12-18T07:58:11;11.43;;;7.30;;
56770;SDS011;42641;59.794;17.616;2022-12-18T08:00:37;12.57;;;7.37;;
56770;SDS011;42641;59.794;17.616;2022-12-18T08:03:03;9.53;;;6.47;;
56770;SDS011;42641;59.794;17.616;2022-12-18T08:05:30;11.07;;;7.23;;
56770;SDS011;42641;59.794;17.616;2022-12-18T08:07:56;12.23;;;7.13;;
56770;SDS011;42641;59.794;17.616;2022-12-18T08:10:24;10.93;;;7.17;;
56770;SDS011;42641;59.794;17.616;2022-12-18T08:12:51;12.23;;;7.00;;
56770;SDS011;42641;59.794;17.616;2022-12-18T08:15:17;10.97;;;7.13;;
56770;SDS011;42641;59.794;17.616;2022-12-18T08:17:44;9.40;;;6.53;;
56770;SDS011;42641;59.794;17.616;2022-12-18T08:20:10;11.90;;;7.20;;
56770;SDS011;42641;59.794;17.616;2022-12-18T08:22:37;13.17;;;7.00;;
56770;SDS011;42641;59.794;17.616;2022-12-18T08:25:04;10.27;;;7.03;;
56770;SDS011;42641;59.794;17.616;2022-12-18T08:27:31;14.97;;;7.50;;
56770;SDS011;42641;59.794;17.616;2022-12-18T08:29:57;12.00;;;7.37;;
56770;SDS011;42641;59.794;17.616;2022-12-18T08:32:24;13.63;;;8.10;;
56770;SDS011;42641;59.794;17.616;2022-12-18T08:34:52;12.53;;;7.70;;
56770;SDS011;42641;59.794;17.616;2022-12-18T08:37:18;10.73;;;7.70;;
56770;SDS011;42641;59.794;17.616;2022-12-18T08:39:45;11.77;;;7.57;;
56770;SDS011;42641;59.794;17.616;2022-12-18T08:42:11;13.47;;;7.33;;
56770;SDS011;42641;59.794;17.616;2022-12-18T08:44:56;11.77;;;7.07;;
56770;SDS011;42641;59.794;17.616;2022-12-18T08:47:22;14.23;;;7.93;;
56770;SDS011;42641;59.794;17.616;2022-12-18T08:49:49;11.77;;;7.30;;
56770;SDS011;42641;59.794;17.616;2022-12-18T08:52:15;11.77;;;7.77;;
56770;SDS011;42641;59.794;17.616;2022-12-18T08:54:41;10.87;;;7.37;;
56770;SDS011;42641;59.794;17.616;2022-12-18T08:57:08;11.83;;;7.07;;
56770;SDS011;42641;59.794;17.616;2022-12-18T08:59:34;13.33;;;8.40;;
56770;SDS011;42641;59.794;17.616;2022-12-18T09:02:00;12.03;;;7.67;;
56770;SDS011;42641;59.794;17.616;2022-12-18T09:04:27;11.60;;;7.63;;
56770;SDS011;42641;59.794;17.616;2022-12-18T09:06:53;13.37;;;7.60;;
56770;SDS011;42641;59.794;17.616;2022-12-18T09:09:21;13.60;;;7.30;;
56770;SDS011;42641;59.794;17.616;2022-12-18T09:11:47;10.93;;;7.70;;
56770;SDS011;42641;59.794;17.616;2022-12-18T09:14:14;11.90;;;7.27;;
56770;SDS011;42641;59.794;17.616;2022-12-18T09:16:40;11.50;;;7.07;;
56770;SDS011;42641;59.794;17.616;2022-12-18T09:19:06;13.43;;;7.97;;
56770;SDS011;42641;59.794;17.616;2022-12-18T09:21:34;11.27;;;8.00;;
56770;SDS011;42641;59.794;17.616;2022-12-18T09:24:04;10.73;;;6.87;;
56770;SDS011;42641;59.794;17.616;2022-12-18T09:26:31;12.33;;;7.60;;
56770;SDS011;42641;59.794;17.616;2022-12-18T09:28:57;11.20;;;7.23;;
56770;SDS011;42641;59.794;17.616;2022-12-18T09:31:24;11.80;;;7.97;;
56770;SDS011;42641;59.794;17.616;2022-12-18T09:33:50;11.33;;;7.53;;
56770;SDS011;42641;59.794;17.616;2022-12-18T09:36:17;12.90;;;7.80;;
56770;SDS011;42641;59.794;17.616;2022-12-18T09:38:44;11.87;;;7.77;;
56770;SDS011;42641;59.794;17.616;2022-12-18T09:44:00;10.17;;;7.67;;
56770;SDS011;42641;59.794;17.616;2022-12-18T09:46:40;11.70;;;7.60;;
56770;SDS011;42641;59.794;17.616;2022-12-18T09:49:12;12.17;;;8.13;;
56770;SDS011;42641;59.794;17.616;2022-12-18T09:54:22;11.90;;;7.87;;
56770;SDS011;42641;59.794;17.616;2022-12-18T09:56:59;13.60;;;7.33;;
56770;SDS011;42641;59.794;17.616;2022-12-18T09:59:36;11.20;;;7.60;;
56770;SDS011;42641;59.794;17.616;2022-12-18T10:02:14;10.23;;;7.00;;
56770;SDS011;42641;59.794;17.616;2022-12-18T10:04:43;10.43;;;7.40;;
56770;SDS011;42641;59.794;17.616;2022-12-18T10:07:15;11.80;;;8.13;;
56770;SDS011;42641;59.794;17.616;2022-12-18T10:09:56;11.03;;;7.20;;
56770;SDS011;42641;59.794;17.616;2022-12-18T10:16:02;12.73;;;7.57;;
56770;SDS011;42641;59.794;17.616;2022-12-18T10:21:01;10.13;;;6.87;;
56770;SDS011;42641;59.794;17.616;2022-12-18T10:26:40;12.13;;;6.97;;
56770;SDS011;42641;59.794;17.616;2022-12-18T10:29:10;10.70;;;6.83;;
56770;SDS011;42641;59.794;17.616;2022-12-18T10:31:38;11.83;;;7.87;;
56770;SDS011;42641;59.794;17.616;2022-12-18T10:34:08;11.90;;;8.00;;
56770;SDS011;42641;59.794;17.616;2022-12-18T10:36:38;10.33;;;6.63;;
56770;SDS011;42641;59.794;17.616;2022-12-18T10:42:10;11.80;;;7.17;;
56770;SDS011;42641;59.794;17.616;2022-12-18T10:44:42;11.53;;;6.83;;
56770;SDS011;42641;59.794;17.616;2022-12-18T10:47:15;9.43;;;7.03;;
56770;SDS011;42641;59.794;17.616;2022-12-18T10:49:49;9.13;;;6.70;;
56770;SDS011;42641;59.794;17.616;2022-12-18T10:52:19;13.00;;;7.33;;
56770;SDS011;42641;59.794;17.616;2022-12-18T10:54:52;11.13;;;6.87;;
56770;SDS011;42641;59.794;17.616;2022-12-18T10:57:37;10.00;;;7.23;;
56770;SDS011;42641;59.794;17.616;2022-12-18T11:00:25;13.97;;;7.00;;
56770;SDS011;42641;59.794;17.616;2022-12-18T11:02:54;11.10;;;6.80;;
56770;SDS011;42641;59.794;17.616;2022-12-18T11:05:31;8.87;;;6.17;;
56770;SDS011;42641;59.794;17.616;2022-12-18T11:07:59;9.97;;;6.10;;
56770;SDS011;42641;59.794;17.616;2022-12-18T11:10:34;11.07;;;6.93;;
56770;SDS011;42641;59.794;17.616;2022-12-18T11:13:10;8.60;;;5.80;;
56770;SDS011;42641;59.794;17.616;2022-12-18T11:15:51;12.43;;;6.20;;
56770;SDS011;42641;59.794;17.616;2022-12-18T11:18:25;9.47;;;6.53;;
56770;SDS011;42641;59.794;17.616;2022-12-18T11:20:57;10.53;;;6.20;;
56770;SDS011;42641;59.794;17.616;2022-12-18T11:23:27;9.77;;;6.27;;
56770;SDS011;42641;59.794;17.616;2022-12-18T11:25:55;10.10;;;6.07;;
56770;SDS011;42641;59.794;17.616;2022-12-18T11:31:26;13.93;;;5.80;;
56770;SDS011;42641;59.794;17.616;2022-12-18T11:34:09;8.83;;;5.57;;
56770;SDS011;42641;59.794;17.616;2022-12-18T11:36:51;7.17;;;5.03;;
56770;SDS011;42641;59.794;17.616;2022-12-18T11:39:23;10.67;;;4.90;;
56770;SDS011;42641;59.794;17.616;2022-12-18T11:41:58;8.67;;;5.53;;
56770;SDS011;42641;59.794;17.616;2022-12-18T11:45:20;7.77;;;5.30;;
56770;SDS011;42641;59.794;17.616;2022-12-18T11:50:24;7.07;;;4.33;;
56770;SDS011;42641;59.794;17.616;2022-12-18T11:52:55;8.10;;;4.60;;
56770;SDS011;42641;59.794;17.616;2022-12-18T12:01:53;8.57;;;4.40;;
56770;SDS011;42641;59.794;17.616;2022-12-18T12:04:27;5.10;;;4.03;;
56770;SDS011;42641;59.794;17.616;2022-12-18T12:07:03;5.83;;;4.10;;
56770;SDS011;42641;59.794;17.616;2022-12-18T12:18:25;7.90;;;4.23;;
56770;SDS011;42641;59.794;17.616;2022-12-18T12:26:29;7.37;;;4.10;;
56770;SDS011;42641;59.794;17.616;2022-12-18T12:39:30;5.93;;;4.00;;
56770;SDS011;42641;59.794;17.616;2022-12-18T12:42:08;5.53;;;3.87;;
56770;SDS011;42641;59.794;17.616;2022-12-18T12:44:59;6.87;;;3.90;;
56770;SDS011;42641;59.794;17.616;2022-12-18T12:47:32;4.80;;;3.03;;
56770;SDS011;42641;59.794;17.616;2022-12-18T12:50:04;5.13;;;3.63;;
56770;SDS011;42641;59.794;17.616;2022-12-18T12:52:39;6.80;;;3.40;;
56770;SDS011;42641;59.794;17.616;2022-12-18T12:55:21;7.17;;;3.33;;
56770;SDS011;42641;59.794;17.616;2022-12-18T12:58:06;7.43;;;3.33;;
56770;SDS011;42641;59.794;17.616;2022-12-18T13:00:45;6.33;;;3.03;;
56770;SDS011;42641;59.794;17.616;2022-12-18T13:09:22;5.27;;;3.13;;
56770;SDS011;42641;59.794;17.616;2022-12-18T13:11:48;5.03;;;2.57;;
56770;SDS011;42641;59.794;17.616;2022-12-18T13:14:34;5.07;;;3.10;;
56770;SDS011;42641;59.794;17.616;2022-12-18T13:19:50;4.93;;;2.90;;
56770;SDS011;42641;59.794;17.616;2022-12-18T13:22:32;6.73;;;2.70;;
56770;SDS011;42641;59.794;17.616;2022-12-18T13:28:09;5.43;;;2.50;;
56770;SDS011;42641;59.794;17.616;2022-12-18T13:30:48;6.67;;;2.90;;
56770;SDS011;42641;59.794;17.616;2022-12-18T13:33:41;4.33;;;2.23;;
56770;SDS011;42641;59.794;17.616;2022-12-18T13:36:23;2.70;;;1.93;;
56770;SDS011;42641;59.794;17.616;2022-12-18T13:41:45;3.97;;;2.10;;
56770;SDS011;42641;59.794;17.616;2022-12-18T13:47:27;5.37;;;1.50;;
56770;SDS011;42641;59.794;17.616;2022-12-18T13:50:00;5.73;;;2.00;;
56770;SDS011;42641;59.794;17.616;2022-12-18T13:52:36;6.40;;;2.27;;
56770;SDS011;42641;59.794;17.616;2022-12-18T13:55:06;6.30;;;1.80;;
56770;SDS011;42641;59.794;17.616;2022-12-18T13:57:41;4.13;;;1.97;;
56770;SDS011;42641;59.794;17.616;2022-12-18T14:02:54;5.97;;;2.17;;
56770;SDS011;42641;59.794;17.616;2022-12-18T14:05:26;3.80;;;1.77;;
56770;SDS011;42641;59.794;17.616;2022-12-18T14:07:58;7.70;;;1.73;;
56770;SDS011;42641;59.794;17.616;2022-12-18T14:10:27;4.27;;;1.83;;
56770;SDS011;42641;59.794;17.616;2022-12-18T14:12:53;4.73;;;1.97;;
56770;SDS011;42641;59.794;17.616;2022-12-18T14:17:53;5.77;;;2.00;;
56770;SDS011;42641;59.794;17.616;2022-12-18T14:20:25;5.10;;;2.00;;
56770;SDS011;42641;59.794;17.616;2022-12-18T14:22:53;3.87;;;1.80;;
56770;SDS011;42641;59.794;17.616;2022-12-18T14:25:23;3.03;;;2.07;;
56770;SDS011;42641;59.794;17.616;2022-12-18T14:30:40;4.00;;;1.70;;
56770;SDS011;42641;59.794;17.616;2022-12-18T14:35:37;5.73;;;1.63;;
56770;SDS011;42641;59.794;17.616;2022-12-18T14:38:19;3.43;;;1.80;;
56770;SDS011;42641;59.794;17.616;2022-12-18T14:40:47;3.70;;;1.80;;
56770;SDS011;42641;59.794;17.616;2022-12-18T14:43:17;5.87;;;2.17;;
56770;SDS011;42641;59.794;17.616;2022-12-18T14:45:44;6.07;;;2.33;;
56770;SDS011;42641;59.794;17.616;2022-12-18T14:48:33;4.97;;;2.07;;
56770;SDS011;42641;59.794;17.616;2022-12-18T14:53:37;4.63;;;2.30;;
56770;SDS011;42641;59.794;17.616;2022-12-18T14:56:25;6.80;;;2.17;;
56770;SDS011;42641;59.794;17.616;2022-12-18T14:58:58;3.83;;;1.80;;
56770;SDS011;42641;59.794;17.616;2022-12-18T15:01:30;4.83;;;1.97;;
56770;SDS011;42641;59.794;17.616;2022-12-18T15:04:31;4.70;;;1.80;;
56770;SDS011;42641;59.794;17.616;2022-12-18T15:07:12;4.97;;;2.47;;
56770;SDS011;42641;59.794;17.616;2022-12-18T15:09:43;4.70;;;1.73;;
56770;SDS011;42641;59.794;17.616;2022-12-18T15:12:32;5.00;;;2.13;;
56770;SDS011;42641;59.794;17.616;2022-12-18T15:20:48;9.33;;;2.10;;
56770;SDS011;42641;59.794;17.616;2022-12-18T15:24:03;3.50;;;2.03;;
56770;SDS011;42641;59.794;17.616;2022-12-18T15:26:12;5.63;;;1.87;;
56770;SDS011;42641;59.794;17.616;2022-12-18T15:33:43;8.77;;;2.30;;
56770;SDS011;42641;59.794;17.616;2022-12-18T15:36:16;4.73;;;2.00;;
56770;SDS011;42641;59.794;17.616;2022-12-18T15:38:46;7.60;;;2.37;;
56770;SDS011;42641;59.794;17.616;2022-12-18T15:41:14;5.83;;;1.77;;
56770;SDS011;42641;59.794;17.616;2022-12-18T15:43:41;7.10;;;1.77;;
56770;SDS011;42641;59.794;17.616;2022-12-18T15:48:42;5.27;;;1.80;;
56770;SDS011;42641;59.794;17.616;2022-12-18T15:53:44;6.77;;;2.13;;
56770;SDS011;42641;59.794;17.616;2022-12-18T15:56:11;4.33;;;2.07;;
56770;SDS011;42641;59.794;17.616;2022-12-18T15:58:57;6.80;;;2.10;;
56770;SDS011;42641;59.794;17.616;2022-12-18T16:01:26;2.97;;;1.87;;
56770;SDS011;42641;59.794;17.616;2022-12-18T16:03:53;4.43;;;2.00;;
56770;SDS011;42641;59.794;17.616;2022-12-18T16:06:20;6.93;;;1.67;;
56770;SDS011;42641;59.794;17.616;2022-12-18T16:08:47;4.67;;;1.70;;
56770;SDS011;42641;59.794;17.616;2022-12-18T16:11:24;7.70;;;1.80;;
56770;SDS011;42641;59.794;17.616;2022-12-18T16:16:41;8.07;;;1.70;;
56770;SDS011;42641;59.794;17.616;2022-12-18T16:19:07;4.27;;;2.00;;
56770;SDS011;42641;59.794;17.616;2022-12-18T16:21:34;11.40;;;2.00;;
56770;SDS011;42641;59.794;17.616;2022-12-18T16:24:00;5.17;;;1.63;;
56770;SDS011;42641;59.794;17.616;2022-12-18T16:26:27;3.40;;;1.83;;
56770;SDS011;42641;59.794;17.616;2022-12-18T16:28:53;5.87;;;1.90;;
56770;SDS011;42641;59.794;17.616;2022-12-18T16:31:20;4.07;;;2.07;;
56770;SDS011;42641;59.794;17.616;2022-12-18T16:33:46;7.13;;;1.80;;
56770;SDS011;42641;59.794;17.616;2022-12-18T16:36:13;5.00;;;1.53;;
56770;SDS011;42641;59.794;17.616;2022-12-18T16:38:39;5.03;;;2.03;;
56770;SDS011;42641;59.794;17.616;2022-12-18T16:41:17;5.43;;;1.80;;
56770;SDS011;42641;59.794;17.616;2022-12-18T16:43:57;5.73;;;1.70;;
56770;SDS011;42641;59.794;17.616;2022-12-18T16:46:23;7.77;;;2.10;;
56770;SDS011;42641;59.794;17.616;2022-12-18T16:48:50;6.87;;;1.80;;
56770;SDS011;42641;59.794;17.616;2022-12-18T16:51:18;4.20;;;2.30;;
56770;SDS011;42641;59.794;17.616;2022-12-18T16:53:44;5.27;;;2.23;;
56770;SDS011;42641;59.794;17.616;2022-12-18T16:56:10;7.20;;;3.90;;
56770;SDS011;42641;59.794;17.616;2022-12-18T16:58:37;7.60;;;1.70;;